createdAt,value
2023-04-09T00:03:21.816Z,18.63
2023-04-09T00:07:22.830Z,19.57
2023-04-09T00:11:23.955Z,12.70
2023-04-09T00:15:31.234Z,12.83
2023-04-09T00:19:27.822Z,11.60
2023-04-09T00:23:28.812Z,12.93
2023-04-09T00:27:29.982Z,13.10
2023-04-09T00:31:31.004Z,12.20
2023-04-09T00:35:32.088Z,12.40
2023-04-09T00:39:33.026Z,11.97
2023-04-09T00:43:34.084Z,10.53
2023-04-09T00:47:36.036Z,10.50
2023-04-09T00:51:38.072Z,10.87
2023-04-09T00:55:40.538Z,11.87
2023-04-09T00:59:42.882Z,9.73
2023-04-09T01:03:44.220Z,11.07
2023-04-09T01:08:01.142Z,11.50
2023-04-09T01:12:25.543Z,10.93
2023-04-09T01:16:30.606Z,10.50
2023-04-09T01:20:40.975Z,11.00
2023-04-09T01:24:48.602Z,10.23
2023-04-09T01:28:55.499Z,11.40
2023-04-09T01:32:58.290Z,10.33
2023-04-09T01:37:02.487Z,10.60
2023-04-09T01:41:04.943Z,12.43
2023-04-09T01:45:07.115Z,11.03
2023-04-09T01:49:10.355Z,10.87
2023-04-09T01:53:11.890Z,10.37
2023-04-09T01:57:13.028Z,11.20
2023-04-09T02:01:18.015Z,11.13
2023-04-09T02:05:22.660Z,12.07
2023-04-09T02:09:24.409Z,10.60
2023-04-09T02:13:27.127Z,12.53
2023-04-09T02:17:28.477Z,12.63
2023-04-09T02:21:29.934Z,10.20
2023-04-09T02:25:31.355Z,11.60
2023-04-09T02:29:32.455Z,11.13
2023-04-09T02:33:33.656Z,11.43
2023-04-09T02:37:34.643Z,10.37
2023-04-09T02:41:35.775Z,10.07
2023-04-09T02:45:36.878Z,10.50
2023-04-09T02:49:38.025Z,11.00
2023-04-09T02:53:40.512Z,12.37
2023-04-09T02:57:41.645Z,11.57
2023-04-09T03:01:42.972Z,12.00
2023-04-09T03:05:44.460Z,12.43
2023-04-09T03:09:45.429Z,10.73
2023-04-09T03:13:46.463Z,11.90
2023-04-09T03:17:47.621Z,12.10
2023-04-09T03:21:50.514Z,10.83
2023-04-09T03:25:58.149Z,12.23
2023-04-09T03:29:59.372Z,10.80
2023-04-09T03:34:00.516Z,10.53
2023-04-09T03:38:01.687Z,11.90
2023-04-09T03:42:02.871Z,11.97
2023-04-09T03:46:15.682Z,11.33
2023-04-09T03:50:17.074Z,12.70
2023-04-09T03:54:18.075Z,11.07
2023-04-09T03:58:19.212Z,12.07
2023-04-09T04:02:20.528Z,11.83
2023-04-09T04:06:21.730Z,12.97
2023-04-09T04:10:22.938Z,13.73
2023-04-09T04:14:24.167Z,12.67
2023-04-09T04:18:25.733Z,13.33
2023-04-09T04:22:26.726Z,12.13
2023-04-09T04:26:27.805Z,14.40
2023-04-09T04:30:28.809Z,12.67
2023-04-09T04:34:29.905Z,12.53
2023-04-09T04:38:31.065Z,13.13
2023-04-09T04:42:32.208Z,11.97
2023-04-09T04:46:33.274Z,11.73
2023-04-09T04:50:34.396Z,10.90
2023-04-09T04:54:35.909Z,11.90
2023-04-09T04:58:37.063Z,13.37
2023-04-09T05:02:38.408Z,12.63
2023-04-09T05:06:39.544Z,12.50
2023-04-09T05:10:43.262Z,11.37
2023-04-09T05:14:44.227Z,12.80
2023-04-09T05:18:45.764Z,13.00
2023-04-09T05:22:46.882Z,15.10
2023-04-09T05:26:47.973Z,13.67
2023-04-09T05:30:49.145Z,15.20
2023-04-09T05:34:50.273Z,15.10
2023-04-09T05:38:51.493Z,15.30
2023-04-09T05:42:52.650Z,15.27
2023-04-09T05:46:53.743Z,15.10
2023-04-09T05:50:55.829Z,15.63
2023-04-09T05:59:00.317Z,13.40
2023-04-09T06:03:01.350Z,14.23
2023-04-09T06:07:02.338Z,14.23
2023-04-09T06:11:03.642Z,13.70
2023-04-09T06:15:05.595Z,15.07
2023-04-09T06:19:06.547Z,14.67
2023-04-09T06:23:07.670Z,13.13
2023-04-09T06:27:08.854Z,12.67
2023-04-09T06:31:09.933Z,14.90
2023-04-09T06:35:11.199Z,14.43
2023-04-09T06:39:12.324Z,13.77
2023-04-09T06:43:13.463Z,13.50
2023-04-09T06:47:14.916Z,14.67
2023-04-09T06:51:16.058Z,16.27
2023-04-09T06:55:17.722Z,17.93
2023-04-09T06:59:18.702Z,18.17
2023-04-09T07:03:20.411Z,17.53
2023-04-09T07:07:23.267Z,17.63
2023-04-09T07:11:24.886Z,17.27
2023-04-09T07:15:26.097Z,19.33
2023-04-09T07:19:27.061Z,18.50
2023-04-09T07:23:28.198Z,17.57
2023-04-09T07:27:29.271Z,20.43
2023-04-09T07:31:30.886Z,21.67
2023-04-09T07:35:33.872Z,19.20
2023-04-09T07:39:35.133Z,19.30
2023-04-09T07:43:36.602Z,19.90
2023-04-09T07:47:39.982Z,19.73
2023-04-09T07:51:41.089Z,20.13
2023-04-09T07:55:42.224Z,19.30
2023-04-09T07:59:43.180Z,20.23
2023-04-09T08:03:44.978Z,20.33
2023-04-09T08:07:46.136Z,19.57
2023-04-09T08:11:48.116Z,21.47
2023-04-09T08:15:49.192Z,20.40
2023-04-09T08:19:50.325Z,21.33
2023-04-09T08:23:51.566Z,21.03
2023-04-09T08:27:52.626Z,19.47
2023-04-09T08:31:53.681Z,18.57
2023-04-09T08:35:54.636Z,19.77
2023-04-09T08:39:55.592Z,18.13
2023-04-09T08:43:59.220Z,18.00
2023-04-09T08:48:03.101Z,17.73
2023-04-09T08:52:04.128Z,19.13
2023-04-09T08:56:05.368Z,19.23
2023-04-09T09:00:08.726Z,18.23
2023-04-09T09:04:10.207Z,19.50
2023-04-09T09:08:14.210Z,18.17
2023-04-09T09:12:21.691Z,16.73
2023-04-09T09:16:22.856Z,18.13
2023-04-09T09:20:25.872Z,19.00
2023-04-09T09:24:27.277Z,17.17
2023-04-09T09:28:32.244Z,17.33
2023-04-09T09:32:33.662Z,16.27
2023-04-09T09:36:34.876Z,17.50
2023-04-09T09:40:36.029Z,16.80
2023-04-09T09:44:37.221Z,16.10
2023-04-09T09:48:39.042Z,16.77
2023-04-09T09:52:43.877Z,17.13
2023-04-09T09:56:45.885Z,16.13
2023-04-09T10:00:48.484Z,17.07
2023-04-09T10:04:51.914Z,15.60
2023-04-09T10:08:57.299Z,16.87
2023-04-09T10:12:59.329Z,17.03
2023-04-09T10:17:00.621Z,17.37
2023-04-09T10:21:09.910Z,17.53
2023-04-09T10:25:11.556Z,16.80
2023-04-09T10:29:14.667Z,15.07
2023-04-09T10:33:19.587Z,16.33
2023-04-09T10:37:25.122Z,15.40
2023-04-09T10:41:28.774Z,14.83
2023-04-09T10:45:41.552Z,17.27
2023-04-09T10:49:42.715Z,14.73
2023-04-09T10:53:43.727Z,14.23
2023-04-09T10:57:45.007Z,13.10
2023-04-09T11:01:53.958Z,14.67
2023-04-09T11:06:05.670Z,13.13
2023-04-09T11:10:07.891Z,14.33
2023-04-09T11:14:08.887Z,14.93
2023-04-09T11:18:16.761Z,14.77
2023-04-09T11:22:18.199Z,13.37
2023-04-09T11:26:35.474Z,11.63
2023-04-09T11:30:36.922Z,12.57
2023-04-09T11:34:37.950Z,13.80
2023-04-09T11:38:39.240Z,11.70
2023-04-09T11:42:40.599Z,11.27
2023-04-09T11:46:42.116Z,11.57
2023-04-09T11:50:43.545Z,10.97
2023-04-09T11:54:50.661Z,11.27
2023-04-09T11:58:54.368Z,7.30
2023-04-09T12:03:03.516Z,8.73
2023-04-09T12:07:10.076Z,9.60
2023-04-09T12:11:12.946Z,11.43
2023-04-09T12:15:21.064Z,10.00
2023-04-09T12:19:24.872Z,10.23
2023-04-09T12:23:26.016Z,9.53
2023-04-09T12:27:27.153Z,11.30
2023-04-09T12:31:28.345Z,11.90
2023-04-09T12:35:29.675Z,13.33
2023-04-09T12:39:32.564Z,12.60
2023-04-09T12:43:33.738Z,12.80
2023-04-09T12:47:34.879Z,13.30
2023-04-09T12:51:36.000Z,12.27
2023-04-09T12:55:37.124Z,10.33
2023-04-09T12:59:38.272Z,11.93
2023-04-09T13:03:40.609Z,10.73
2023-04-09T13:07:43.317Z,11.93
2023-04-09T13:11:44.733Z,11.63
2023-04-09T13:15:45.744Z,13.37
2023-04-09T13:19:46.783Z,12.00
2023-04-09T13:23:47.958Z,12.77
2023-04-09T13:27:48.990Z,9.73
2023-04-09T13:31:50.585Z,10.47
2023-04-09T13:35:51.845Z,10.47
2023-04-09T13:39:52.961Z,11.33
2023-04-09T13:43:54.096Z,10.23
2023-04-09T13:47:55.532Z,10.37
2023-04-09T13:51:57.089Z,10.13
2023-04-09T13:55:58.270Z,10.93
2023-04-09T14:00:01.162Z,10.63
2023-04-09T14:04:02.516Z,10.27
2023-04-09T14:08:03.853Z,11.83
2023-04-09T14:12:04.969Z,10.87
2023-04-09T14:16:07.091Z,11.20
2023-04-09T14:20:08.730Z,9.27
2023-04-09T14:24:10.019Z,9.50
2023-04-09T14:28:11.177Z,10.40
2023-04-09T14:32:12.267Z,9.10
2023-04-09T14:36:13.617Z,9.70
2023-04-09T14:40:14.715Z,9.50
2023-04-09T14:44:15.969Z,9.77
2023-04-09T14:48:17.292Z,9.63
2023-04-09T14:52:18.445Z,8.80
2023-04-09T14:56:19.561Z,8.47
2023-04-09T15:00:21.287Z,9.37
2023-04-09T15:04:23.016Z,9.40
2023-04-09T15:08:24.230Z,9.57
2023-04-09T15:12:30.170Z,10.20
2023-04-09T15:16:34.482Z,9.10
2023-04-09T15:20:36.835Z,8.37
2023-04-09T15:24:37.991Z,8.10
2023-04-09T15:28:40.435Z,8.17
2023-04-09T15:32:41.456Z,8.43
2023-04-09T15:36:44.354Z,8.30
2023-04-09T15:40:45.564Z,9.43
2023-04-09T15:44:48.960Z,8.03
2023-04-09T15:48:50.246Z,7.73
2023-04-09T15:52:51.210Z,7.30
2023-04-09T15:56:52.339Z,7.93
2023-04-09T16:00:53.665Z,7.73
2023-04-09T16:04:54.946Z,8.17
2023-04-09T16:08:56.485Z,8.60
2023-04-09T16:12:57.773Z,7.23
2023-04-09T16:16:58.988Z,8.20
2023-04-09T16:20:59.957Z,8.87
2023-04-09T16:25:00.975Z,8.30
2023-04-09T16:29:03.504Z,7.83
2023-04-09T16:33:04.804Z,7.00
2023-04-09T16:37:06.924Z,7.87
2023-04-09T16:41:08.392Z,7.97
2023-04-09T16:45:10.286Z,8.63
2023-04-09T16:49:11.609Z,8.00
2023-04-09T16:53:12.835Z,6.87
2023-04-09T16:57:14.365Z,8.10
2023-04-09T17:01:15.353Z,8.63
2023-04-09T17:05:17.325Z,7.93
2023-04-09T17:09:18.651Z,8.70
2023-04-09T17:13:20.779Z,9.23
2023-04-09T17:17:21.816Z,9.40
2023-04-09T17:21:23.052Z,8.50
2023-04-09T17:25:24.408Z,8.67
2023-04-09T17:29:25.691Z,8.50
2023-04-09T17:33:26.730Z,8.13
2023-04-09T17:37:28.446Z,8.30
2023-04-09T17:41:30.044Z,9.10
2023-04-09T17:45:31.751Z,8.07
2023-04-09T17:49:33.265Z,8.17
2023-04-09T17:53:34.291Z,11.33
2023-04-09T17:57:35.596Z,9.53
2023-04-09T18:01:36.837Z,9.57
2023-04-09T18:05:38.391Z,9.93
2023-04-09T18:09:40.033Z,11.70
2023-04-09T18:13:41.440Z,11.60
2023-04-09T18:17:42.646Z,12.10
2023-04-09T18:21:43.987Z,11.70
2023-04-09T18:25:45.081Z,10.30
2023-04-09T18:29:46.252Z,9.03
2023-04-09T18:33:47.380Z,9.23
2023-04-09T18:37:48.531Z,9.03
2023-04-09T18:41:49.733Z,14.55
2023-04-09T18:45:52.287Z,12.90
2023-04-09T18:49:53.449Z,11.80
2023-04-09T18:53:54.921Z,11.03
2023-04-09T18:57:56.927Z,15.33
2023-04-09T19:01:58.029Z,14.57
2023-04-09T19:05:59.506Z,17.03
2023-04-09T19:10:00.541Z,11.97
2023-04-09T19:14:03.595Z,11.67
2023-04-09T19:18:04.618Z,9.23
2023-04-09T19:22:06.367Z,10.47
2023-04-09T19:26:09.070Z,9.47
2023-04-09T19:30:11.423Z,8.40
2023-04-09T19:34:12.767Z,9.80
2023-04-09T19:38:14.255Z,9.80
2023-04-09T19:42:15.579Z,9.70
2023-04-09T19:46:16.737Z,10.27
2023-04-09T19:50:18.166Z,14.03
2023-04-09T19:54:19.344Z,20.47
2023-04-09T19:58:20.591Z,20.97
2023-04-09T20:02:23.935Z,17.03
2023-04-09T20:06:25.548Z,14.10
2023-04-09T20:10:26.763Z,13.13
2023-04-09T20:14:27.914Z,12.33
2023-04-09T20:18:28.964Z,13.20
2023-04-09T20:22:30.367Z,14.83
2023-04-09T20:26:31.725Z,15.97
2023-04-09T20:30:33.018Z,15.20
2023-04-09T20:34:34.025Z,17.87
2023-04-09T20:38:35.402Z,15.70
2023-04-09T20:42:37.831Z,15.93
2023-04-09T20:46:38.880Z,18.23
2023-04-09T20:50:40.244Z,16.90
2023-04-09T20:54:42.399Z,17.57
2023-04-09T20:58:43.983Z,14.87
2023-04-09T21:02:45.142Z,17.43
2023-04-09T21:06:47.210Z,16.97
2023-04-09T21:10:48.250Z,17.07
2023-04-09T21:14:49.228Z,11.43
2023-04-09T21:18:51.127Z,12.50
2023-04-09T21:22:53.748Z,13.33
2023-04-09T21:26:55.220Z,48.03
2023-04-09T21:30:57.108Z,48.73
2023-04-09T21:34:58.231Z,31.13
2023-04-09T21:38:59.385Z,30.10
2023-04-09T21:43:00.406Z,26.60
2023-04-09T21:47:03.534Z,29.97
2023-04-09T21:51:10.264Z,26.87
2023-04-09T21:55:11.471Z,20.27
2023-04-09T21:59:12.500Z,19.97
2023-04-09T22:03:13.904Z,19.40
2023-04-09T22:07:15.155Z,22.63
2023-04-09T22:11:16.383Z,20.90
2023-04-09T22:15:19.000Z,20.53
2023-04-09T22:19:19.996Z,18.90
2023-04-09T22:23:21.009Z,17.70
2023-04-09T22:27:22.245Z,18.97
2023-04-09T22:31:23.445Z,20.17
2023-04-09T22:35:24.722Z,21.63
2023-04-09T22:39:26.047Z,19.43
2023-04-09T22:43:27.198Z,18.93
2023-04-09T22:47:28.841Z,21.27
2023-04-09T22:51:30.307Z,18.43
2023-04-09T22:55:31.518Z,18.43
2023-04-09T22:59:40.116Z,21.07
2023-04-09T23:03:35.690Z,20.40
2023-04-09T23:07:36.730Z,18.93
2023-04-09T23:11:37.852Z,19.13
2023-04-09T23:15:40.924Z,17.27
2023-04-09T23:19:42.912Z,14.37
2023-04-09T23:23:44.122Z,16.97
2023-04-09T23:27:46.027Z,18.63
2023-04-09T23:31:47.192Z,16.97
2023-04-09T23:35:48.346Z,17.83
2023-04-09T23:39:49.423Z,17.77
2023-04-09T23:43:50.622Z,18.37
2023-04-09T23:47:52.192Z,16.30
2023-04-09T23:51:53.322Z,14.53
2023-04-09T23:55:54.302Z,14.40
2023-04-09T23:59:56.492Z,17.23
